Nave Celeste — VRZH4 — position and weather

sailwx.info

Track history (hours):
 
Tides and Currents Weather Stations Pressure Air Temp Water Temp Dewpoint Dewpoint Depression Visibility Wind Speed Wind Dir Waves Ship Positions

Nave Celeste

Last reported at 2017-Mar-25 03:29 UTC. Time now 2017-Mar-29 11:12 UTC.
Position N 07°31' W 015°52'.

Length 332 m; draft 11 m.

Type: Tanker. MMSI: 477974000.

Date/timePositionNaut miles runAvg speedWind from/ knotsBaromVisibWave heightAir tempDewpointWater temp
2017-Mar-25 03:29N 07°31' W 015°52'1213.1
2017-Mar-25 02:33N 07°41' W 015°59'1312.9
2017-Mar-25 01:33N 07°52' W 016°06'1613.0
2017-Mar-25 00:18N 08°05' W 016°15'1013.0
2017-Mar-24 23:30N 08°14' W 016°21'1213.0
2017-Mar-24 22:33N 08°24' W 016°28'1613.2
2017-Mar-24 21:21N 08°37' W 016°37'1013.0
2017-Mar-24 20:33N 08°46' W 016°43'1313.0
2017-Mar-24 19:33N 08°56' W 016°51'1313.1
2017-Mar-24 18:33N 09°07' W 016°58'1313.2
2017-Mar-24 17:33N 09°18' W 017°06'1313.3
2017-Mar-24 16:33N 09°29' W 017°14'1813.3
2017-Mar-24 15:14N 09°44' W 017°24'913.7
2017-Mar-24 14:33N 09°51' W 017°29'15713.1
2017-Mar-24 02:33N 12°01' W 018°59'  
2017-Mar-20 21:30N 28°07' W 016°14'1614.0
2017-Mar-20 20:19N 28°20' W 016°02'1413.5
2017-Mar-20 19:15N 28°31' W 015°51'35113.1
2017-Mar-19 16:33N 33°57' W 013°20'1513.4
2017-Mar-19 15:24N 34°11' W 013°13'1113.4
2017-Mar-19 14:33N 34°22' W 013°08'1313.5
2017-Mar-19 13:33N 34°35' W 013°03'5913.5
2017-Mar-19 09:12N 35°29' W 012°37'913.1
2017-Mar-19 08:29N 35°38' W 012°33'1213.1
2017-Mar-19 07:33N 35°49' W 012°27'1312.9
2017-Mar-19 06:33N 36°01' W 012°21'1312.5
2017-Mar-19 05:31N 36°13' W 012°16'2613.1
2017-Mar-19 03:33N 36°37' W 012°04'1313.1
2017-Mar-19 02:32N 36°50' W 012°01'1313.1
2017-Mar-19 01:33N 37°03' W 011°57'2612.9
2017-Mar-18 23:32N 37°28' W 011°48'2813.0
2017-Mar-18 21:23N 37°55' W 011°40'1113.0
2017-Mar-18 20:33N 38°06' W 011°37'1313.0
2017-Mar-18 19:33N 38°18' W 011°33'1312.8
2017-Mar-18 18:33N 38°31' W 011°29'1612.6
2017-Mar-18 17:19N 38°46' W 011°24'1012.6
2017-Mar-18 16:33N 38°55' W 011°21'1312.4
2017-Mar-18 15:33N 39°07' W 011°18'4013.0
2017-Mar-18 12:31N 39°46' W 011°06'1213.1
2017-Mar-18 11:34N 39°58' W 011°02'1413.5
2017-Mar-18 10:33N 40°11' W 010°57'5313.3
2017-Mar-18 06:32N 41°03' W 010°41'8013.1
2017-Mar-18 00:24N 42°21' W 010°15'44713.2
2017-Mar-16 14:29N 49°01' W 005°29'2613.2
2017-Mar-16 12:33N 49°14' W 004°56'1413.8
2017-Mar-16 11:33N 49°22' W 004°39'1313.2
2017-Mar-16 10:33N 49°29' W 004°22'1312.3
2017-Mar-16 09:30N 49°38' W 004°06'1111.6
2017-Mar-16 08:33N 49°44' W 003°52'1111.1
2017-Mar-16 07:33N 49°50' W 003°38'1211.7
2017-Mar-16 06:33N 49°52' W 003°20'1212.3
2017-Mar-16 05:33N 49°57' W 003°03'1414.2
2017-Mar-16 04:33N 50°01' W 002°41'1615.6
2017-Mar-16 03:33N 50°06' W 002°18'1615.7
2017-Mar-16 02:34N 50°10' W 001°55'1515.2
2017-Mar-16 01:33N 50°15' W 001°32'1413.8
2017-Mar-16 00:33N 50°18' W 001°11'1211.9
2017-Mar-15 23:34N 50°21' W 000°53'1110.9
2017-Mar-15 22:34N 50°24' W 000°37'1111.2
2017-Mar-15 21:34N 50°27' W 000°20'1111.5
2017-Mar-15 20:34N 50°30' W 000°02'1312.6
2017-Mar-15 19:33N 50°33' E 000°17'1414.0
2017-Mar-15 18:34N 50°38' E 000°37'1414.3
2017-Mar-15 17:34N 50°47' E 000°55'1313.4
2017-Mar-15 16:34N 50°55' E 001°11'1211.7
2017-Mar-15 15:34N 51°03' E 001°25'1110.7
2017-Mar-15 14:34N 51°09' E 001°39'1110.8
2017-Mar-15 13:34N 51°17' E 001°51'1111.3
2017-Mar-15 12:34N 51°28' E 001°57'1313.2
2017-Mar-15 11:33N 51°37' E 002°12'1515.0
2017-Mar-15 10:34N 51°49' E 002°28'1615.3
2017-Mar-15 09:31N 52°00' E 002°45'1714.9
2017-Mar-15 08:22N 52°13' E 003°04'1214.1
2017-Mar-15 07:33N 52°23' E 003°14'1313.2
2017-Mar-15 06:33N 52°34' E 003°26'1312.6
2017-Mar-15 05:32N 52°44' E 003°39'1211.9
2017-Mar-15 04:33N 52°53' E 003°51'  
Track history (hours):
 
Tides and Currents Weather Stations Pressure Air Temp Water Temp Dewpoint Dewpoint Depression Visibility Wind Speed Wind Dir Waves Ship Positions

Nave Celeste

Last reported at 2017-Mar-25 03:29 UTC. Time now 2017-Mar-29 11:12 UTC.
Position N 07°31' W 015°52'.

Length 332 m; draft 11 m.

Type: Tanker. MMSI: 477974000.

Date/timePositionNaut miles runAvg speedWind from/ knotsBaromVisibWave heightAir tempDewpointWater temp
2017-Mar-25 03:29N 07°31' W 015°52'1213.1
2017-Mar-25 02:33N 07°41' W 015°59'1312.9
2017-Mar-25 01:33N 07°52' W 016°06'1613.0
2017-Mar-25 00:18N 08°05' W 016°15'1013.0
2017-Mar-24 23:30N 08°14' W 016°21'1213.0
2017-Mar-24 22:33N 08°24' W 016°28'1613.2
2017-Mar-24 21:21N 08°37' W 016°37'1013.0
2017-Mar-24 20:33N 08°46' W 016°43'1313.0
2017-Mar-24 19:33N 08°56' W 016°51'1313.1
2017-Mar-24 18:33N 09°07' W 016°58'1313.2
2017-Mar-24 17:33N 09°18' W 017°06'1313.3
2017-Mar-24 16:33N 09°29' W 017°14'1813.3
2017-Mar-24 15:14N 09°44' W 017°24'913.7
2017-Mar-24 14:33N 09°51' W 017°29'15713.1
2017-Mar-24 02:33N 12°01' W 018°59'  
2017-Mar-20 21:30N 28°07' W 016°14'1614.0
2017-Mar-20 20:19N 28°20' W 016°02'1413.5
2017-Mar-20 19:15N 28°31' W 015°51'35113.1
2017-Mar-19 16:33N 33°57' W 013°20'1513.4
2017-Mar-19 15:24N 34°11' W 013°13'1113.4
2017-Mar-19 14:33N 34°22' W 013°08'1313.5
2017-Mar-19 13:33N 34°35' W 013°03'5913.5
2017-Mar-19 09:12N 35°29' W 012°37'913.1
2017-Mar-19 08:29N 35°38' W 012°33'1213.1
2017-Mar-19 07:33N 35°49' W 012°27'1312.9
2017-Mar-19 06:33N 36°01' W 012°21'1312.5
2017-Mar-19 05:31N 36°13' W 012°16'2613.1
2017-Mar-19 03:33N 36°37' W 012°04'1313.1
2017-Mar-19 02:32N 36°50' W 012°01'1313.1
2017-Mar-19 01:33N 37°03' W 011°57'2612.9
2017-Mar-18 23:32N 37°28' W 011°48'2813.0
2017-Mar-18 21:23N 37°55' W 011°40'1113.0
2017-Mar-18 20:33N 38°06' W 011°37'1313.0
2017-Mar-18 19:33N 38°18' W 011°33'1312.8
2017-Mar-18 18:33N 38°31' W 011°29'1612.6
2017-Mar-18 17:19N 38°46' W 011°24'1012.6
2017-Mar-18 16:33N 38°55' W 011°21'1312.4
2017-Mar-18 15:33N 39°07' W 011°18'4013.0
2017-Mar-18 12:31N 39°46' W 011°06'1213.1
2017-Mar-18 11:34N 39°58' W 011°02'1413.5
2017-Mar-18 10:33N 40°11' W 010°57'5313.3
2017-Mar-18 06:32N 41°03' W 010°41'8013.1
2017-Mar-18 00:24N 42°21' W 010°15'44713.2
2017-Mar-16 14:29N 49°01' W 005°29'2613.2
2017-Mar-16 12:33N 49°14' W 004°56'1413.8
2017-Mar-16 11:33N 49°22' W 004°39'1313.2
2017-Mar-16 10:33N 49°29' W 004°22'1312.3
2017-Mar-16 09:30N 49°38' W 004°06'1111.6
2017-Mar-16 08:33N 49°44' W 003°52'1111.1
2017-Mar-16 07:33N 49°50' W 003°38'1211.7
2017-Mar-16 06:33N 49°52' W 003°20'1212.3
2017-Mar-16 05:33N 49°57' W 003°03'1414.2
2017-Mar-16 04:33N 50°01' W 002°41'1615.6
2017-Mar-16 03:33N 50°06' W 002°18'1615.7
2017-Mar-16 02:34N 50°10' W 001°55'1515.2
2017-Mar-16 01:33N 50°15' W 001°32'1413.8
2017-Mar-16 00:33N 50°18' W 001°11'1211.9
2017-Mar-15 23:34N 50°21' W 000°53'1110.9
2017-Mar-15 22:34N 50°24' W 000°37'1111.2
2017-Mar-15 21:34N 50°27' W 000°20'1111.5
2017-Mar-15 20:34N 50°30' W 000°02'1312.6
2017-Mar-15 19:33N 50°33' E 000°17'1414.0
2017-Mar-15 18:34N 50°38' E 000°37'1414.3
2017-Mar-15 17:34N 50°47' E 000°55'1313.4
2017-Mar-15 16:34N 50°55' E 001°11'1211.7
2017-Mar-15 15:34N 51°03' E 001°25'1110.7
2017-Mar-15 14:34N 51°09' E 001°39'1110.8
2017-Mar-15 13:34N 51°17' E 001°51'1111.3
2017-Mar-15 12:34N 51°28' E 001°57'1313.2
2017-Mar-15 11:33N 51°37' E 002°12'1515.0
2017-Mar-15 10:34N 51°49' E 002°28'1615.3
2017-Mar-15 09:31N 52°00' E 002°45'1714.9
2017-Mar-15 08:22N 52°13' E 003°04'1214.1
2017-Mar-15 07:33N 52°23' E 003°14'1313.2
2017-Mar-15 06:33N 52°34' E 003°26'1312.6
2017-Mar-15 05:32N 52°44' E 003°39'1211.9
2017-Mar-15 04:33N 52°53' E 003°51'  

Dump ship's entire track history